sensor_id;sensor_type;location;lat;lon;timestamp;temperature;humidity
10384;DHT22;5238;43.508;4.980;2023-04-24T00:02:23;16.00;91.30
10384;DHT22;5238;43.508;4.980;2023-04-24T00:05:14;16.00;91.30
10384;DHT22;5238;43.508;4.980;2023-04-24T00:07:44;16.00;91.30
10384;DHT22;5238;43.508;4.980;2023-04-24T00:10:18;16.00;91.30
10384;DHT22;5238;43.508;4.980;2023-04-24T00:12:53;15.90;91.30
10384;DHT22;5238;43.508;4.980;2023-04-24T00:15:34;15.90;91.30
10384;DHT22;5238;43.508;4.980;2023-04-24T00:18:02;15.90;91.30
10384;DHT22;5238;43.508;4.980;2023-04-24T00:20:31;15.90;91.30
10384;DHT22;5238;43.508;4.980;2023-04-24T00:23:10;15.90;91.30
10384;DHT22;5238;43.508;4.980;2023-04-24T00:25:47;15.90;91.30
10384;DHT22;5238;43.508;4.980;2023-04-24T00:28:20;15.90;91.30
10384;DHT22;5238;43.508;4.980;2023-04-24T00:30:58;15.90;91.30
10384;DHT22;5238;43.508;4.980;2023-04-24T00:33:27;15.90;91.30
10384;DHT22;5238;43.508;4.980;2023-04-24T00:36:17;15.90;91.30
10384;DHT22;5238;43.508;4.980;2023-04-24T00:39:15;15.80;91.30
10384;DHT22;5238;43.508;4.980;2023-04-24T00:41:42;15.80;91.30
10384;DHT22;5238;43.508;4.980;2023-04-24T00:44:14;15.80;91.30
10384;DHT22;5238;43.508;4.980;2023-04-24T00:46:56;15.80;91.30
10384;DHT22;5238;43.508;4.980;2023-04-24T00:49:32;15.80;91.30
10384;DHT22;5238;43.508;4.980;2023-04-24T00:52:09;15.70;91.30
10384;DHT22;5238;43.508;4.980;2023-04-24T00:54:54;15.70;91.30
10384;DHT22;5238;43.508;4.980;2023-04-24T00:57:29;15.60;91.30
10384;DHT22;5238;43.508;4.980;2023-04-24T00:59:58;15.60;91.30
10384;DHT22;5238;43.508;4.980;2023-04-24T01:02:34;15.60;91.30
10384;DHT22;5238;43.508;4.980;2023-04-24T01:05:17;15.60;91.30
10384;DHT22;5238;43.508;4.980;2023-04-24T01:07:45;15.60;91.30
10384;DHT22;5238;43.508;4.980;2023-04-24T01:10:16;15.50;91.30
10384;DHT22;5238;43.508;4.980;2023-04-24T01:12:47;15.50;91.30
10384;DHT22;5238;43.508;4.980;2023-04-24T01:15:25;15.50;91.30
10384;DHT22;5238;43.508;4.980;2023-04-24T01:17:53;15.50;91.30
10384;DHT22;5238;43.508;4.980;2023-04-24T01:20:35;15.50;91.30
10384;DHT22;5238;43.508;4.980;2023-04-24T01:23:16;15.50;91.30
10384;DHT22;5238;43.508;4.980;2023-04-24T01:25:46;15.40;91.30
10384;DHT22;5238;43.508;4.980;2023-04-24T01:28:50;15.40;91.30
10384;DHT22;5238;43.508;4.980;2023-04-24T01:31:18;15.40;91.30
10384;DHT22;5238;43.508;4.980;2023-04-24T01:34:02;15.40;91.30
10384;DHT22;5238;43.508;4.980;2023-04-24T01:36:49;15.30;91.30
10384;DHT22;5238;43.508;4.980;2023-04-24T01:39:35;15.30;91.30
10384;DHT22;5238;43.508;4.980;2023-04-24T01:42:16;15.20;91.30
10384;DHT22;5238;43.508;4.980;2023-04-24T01:44:57;15.10;91.30
10384;DHT22;5238;43.508;4.980;2023-04-24T01:47:49;15.10;91.30
10384;DHT22;5238;43.508;4.980;2023-04-24T01:50:17;15.10;91.30
10384;DHT22;5238;43.508;4.980;2023-04-24T01:52:44;15.10;91.30
10384;DHT22;5238;43.508;4.980;2023-04-24T01:55:41;15.00;91.30
10384;DHT22;5238;43.508;4.980;2023-04-24T01:58:30;15.00;91.30
10384;DHT22;5238;43.508;4.980;2023-04-24T02:01:06;15.00;91.30
10384;DHT22;5238;43.508;4.980;2023-04-24T02:03:51;15.00;91.30
10384;DHT22;5238;43.508;4.980;2023-04-24T02:06:22;15.00;91.30
10384;DHT22;5238;43.508;4.980;2023-04-24T02:08:54;14.90;91.30
10384;DHT22;5238;43.508;4.980;2023-04-24T02:11:35;14.90;91.30
10384;DHT22;5238;43.508;4.980;2023-04-24T02:14:02;14.80;91.30
10384;DHT22;5238;43.508;4.980;2023-04-24T02:16:29;14.80;91.30
10384;DHT22;5238;43.508;4.980;2023-04-24T02:19:01;14.80;91.30
10384;DHT22;5238;43.508;4.980;2023-04-24T02:21:40;14.70;91.30
10384;DHT22;5238;43.508;4.980;2023-04-24T02:24:10;14.70;91.30
10384;DHT22;5238;43.508;4.980;2023-04-24T02:27:11;14.70;91.30
10384;DHT22;5238;43.508;4.980;2023-04-24T02:29:40;14.70;91.30
10384;DHT22;5238;43.508;4.980;2023-04-24T02:32:22;14.70;91.30
10384;DHT22;5238;43.508;4.980;2023-04-24T02:34:49;14.70;91.30
10384;DHT22;5238;43.508;4.980;2023-04-24T02:37:21;14.70;91.30
10384;DHT22;5238;43.508;4.980;2023-04-24T02:39:49;14.70;91.30
10384;DHT22;5238;43.508;4.980;2023-04-24T02:42:17;14.70;91.30
10384;DHT22;5238;43.508;4.980;2023-04-24T02:44:45;14.60;91.30
10384;DHT22;5238;43.508;4.980;2023-04-24T02:47:20;14.60;91.30
10384;DHT22;5238;43.508;4.980;2023-04-24T02:49:49;14.60;91.30
10384;DHT22;5238;43.508;4.980;2023-04-24T02:52:20;14.60;91.30
10384;DHT22;5238;43.508;4.980;2023-04-24T02:55:04;14.50;91.30
10384;DHT22;5238;43.508;4.980;2023-04-24T02:57:38;14.50;91.30
10384;DHT22;5238;43.508;4.980;2023-04-24T03:00:20;14.50;91.30
10384;DHT22;5238;43.508;4.980;2023-04-24T03:02:48;14.50;91.30
10384;DHT22;5238;43.508;4.980;2023-04-24T03:05:18;14.40;91.30
10384;DHT22;5238;43.508;4.980;2023-04-24T03:07:49;14.40;91.30
10384;DHT22;5238;43.508;4.980;2023-04-24T03:10:40;14.40;91.30
10384;DHT22;5238;43.508;4.980;2023-04-24T03:13:09;14.40;91.30
10384;DHT22;5238;43.508;4.980;2023-04-24T03:16:08;14.30;91.30
10384;DHT22;5238;43.508;4.980;2023-04-24T03:18:41;14.30;91.30
10384;DHT22;5238;43.508;4.980;2023-04-24T03:21:10;14.30;91.30
10384;DHT22;5238;43.508;4.980;2023-04-24T03:23:42;14.30;91.30
10384;DHT22;5238;43.508;4.980;2023-04-24T03:26:32;14.30;91.30
10384;DHT22;5238;43.508;4.980;2023-04-24T03:29:31;14.30;91.30
10384;DHT22;5238;43.508;4.980;2023-04-24T03:31:59;14.30;91.30
10384;DHT22;5238;43.508;4.980;2023-04-24T03:34:26;14.30;91.30
10384;DHT22;5238;43.508;4.980;2023-04-24T03:36:55;14.30;91.30
10384;DHT22;5238;43.508;4.980;2023-04-24T03:39:23;14.30;91.30
10384;DHT22;5238;43.508;4.980;2023-04-24T03:42:08;14.30;91.30
10384;DHT22;5238;43.508;4.980;2023-04-24T03:44:50;14.30;91.30
10384;DHT22;5238;43.508;4.980;2023-04-24T03:47:35;14.30;91.30
10384;DHT22;5238;43.508;4.980;2023-04-24T03:50:08;14.20;91.30
10384;DHT22;5238;43.508;4.980;2023-04-24T03:52:49;14.20;91.30
10384;DHT22;5238;43.508;4.980;2023-04-24T03:55:28;14.20;91.30
10384;DHT22;5238;43.508;4.980;2023-04-24T03:57:56;14.20;91.30
10384;DHT22;5238;43.508;4.980;2023-04-24T04:00:50;14.20;91.30
10384;DHT22;5238;43.508;4.980;2023-04-24T04:03:18;14.20;91.30
10384;DHT22;5238;43.508;4.980;2023-04-24T04:05:45;14.20;91.30
10384;DHT22;5238;43.508;4.980;2023-04-24T04:08:12;14.10;91.30
10384;DHT22;5238;43.508;4.980;2023-04-24T04:10:44;14.10;91.30
10384;DHT22;5238;43.508;4.980;2023-04-24T04:13:30;14.10;91.30
10384;DHT22;5238;43.508;4.980;2023-04-24T04:16:04;14.10;91.30
10384;DHT22;5238;43.508;4.980;2023-04-24T04:18:45;14.00;91.30
10384;DHT22;5238;43.508;4.980;2023-04-24T04:21:28;14.00;91.30
10384;DHT22;5238;43.508;4.980;2023-04-24T04:24:06;13.90;91.30
10384;DHT22;5238;43.508;4.980;2023-04-24T04:26:36;13.90;91.30
10384;DHT22;5238;43.508;4.980;2023-04-24T04:29:04;13.90;91.30
10384;DHT22;5238;43.508;4.980;2023-04-24T04:31:49;13.90;91.30
10384;DHT22;5238;43.508;4.980;2023-04-24T04:34:29;13.90;91.30
10384;DHT22;5238;43.508;4.980;2023-04-24T04:36:58;13.80;91.30
10384;DHT22;5238;43.508;4.980;2023-04-24T04:39:48;13.80;91.30
10384;DHT22;5238;43.508;4.980;2023-04-24T04:42:27;13.80;91.30
10384;DHT22;5238;43.508;4.980;2023-04-24T04:44:54;13.80;91.30
10384;DHT22;5238;43.508;4.980;2023-04-24T04:47:48;13.80;91.30
10384;DHT22;5238;43.508;4.980;2023-04-24T04:50:29;13.80;91.30
10384;DHT22;5238;43.508;4.980;2023-04-24T04:52:56;13.80;91.30
10384;DHT22;5238;43.508;4.980;2023-04-24T04:55:24;13.80;91.30
10384;DHT22;5238;43.508;4.980;2023-04-24T04:57:53;13.80;91.30
10384;DHT22;5238;43.508;4.980;2023-04-24T05:00:35;13.80;91.30
10384;DHT22;5238;43.508;4.980;2023-04-24T05:03:21;13.80;91.30
10384;DHT22;5238;43.508;4.980;2023-04-24T05:05:48;13.80;91.30
10384;DHT22;5238;43.508;4.980;2023-04-24T05:08:15;13.80;91.30
10384;DHT22;5238;43.508;4.980;2023-04-24T05:10:42;13.90;91.30
10384;DHT22;5238;43.508;4.980;2023-04-24T05:13:09;13.90;91.30
10384;DHT22;5238;43.508;4.980;2023-04-24T05:15:50;13.90;91.30
10384;DHT22;5238;43.508;4.980;2023-04-24T05:18:27;13.90;91.30
10384;DHT22;5238;43.508;4.980;2023-04-24T05:20:57;13.90;91.30
10384;DHT22;5238;43.508;4.980;2023-04-24T05:23:25;13.90;91.30
10384;DHT22;5238;43.508;4.980;2023-04-24T05:26:06;14.00;91.30
10384;DHT22;5238;43.508;4.980;2023-04-24T05:28:34;14.00;91.30
10384;DHT22;5238;43.508;4.980;2023-04-24T05:31:02;14.00;91.30
10384;DHT22;5238;43.508;4.980;2023-04-24T05:33:55;14.00;91.30
10384;DHT22;5238;43.508;4.980;2023-04-24T05:36:24;14.10;91.30
10384;DHT22;5238;43.508;4.980;2023-04-24T05:38:53;14.10;91.30
10384;DHT22;5238;43.508;4.980;2023-04-24T05:41:21;14.20;91.30
10384;DHT22;5238;43.508;4.980;2023-04-24T05:43:48;14.20;91.30
10384;DHT22;5238;43.508;4.980;2023-04-24T05:46:15;14.30;91.30
10384;DHT22;5238;43.508;4.980;2023-04-24T05:48:42;14.40;91.30
10384;DHT22;5238;43.508;4.980;2023-04-24T05:51:12;14.50;91.30
10384;DHT22;5238;43.508;4.980;2023-04-24T05:53:54;14.50;91.30
10384;DHT22;5238;43.508;4.980;2023-04-24T05:56:32;14.60;91.30
10384;DHT22;5238;43.508;4.980;2023-04-24T05:59:18;14.70;91.30
10384;DHT22;5238;43.508;4.980;2023-04-24T06:01:47;14.80;91.30
10384;DHT22;5238;43.508;4.980;2023-04-24T06:04:28;15.00;91.30
10384;DHT22;5238;43.508;4.980;2023-04-24T06:06:57;15.10;91.30
10384;DHT22;5238;43.508;4.980;2023-04-24T06:09:24;15.20;91.30
10384;DHT22;5238;43.508;4.980;2023-04-24T06:11:51;15.40;91.30
10384;DHT22;5238;43.508;4.980;2023-04-24T06:14:19;15.50;91.30
10384;DHT22;5238;43.508;4.980;2023-04-24T06:16:46;15.70;91.30
10384;DHT22;5238;43.508;4.980;2023-04-24T06:19:13;15.90;91.30
10384;DHT22;5238;43.508;4.980;2023-04-24T06:21:45;16.00;91.30
10384;DHT22;5238;43.508;4.980;2023-04-24T06:24:15;16.20;91.30
10384;DHT22;5238;43.508;4.980;2023-04-24T06:26:48;16.40;91.30
10384;DHT22;5238;43.508;4.980;2023-04-24T06:29:36;16.60;91.30
10384;DHT22;5238;43.508;4.980;2023-04-24T06:32:14;16.80;91.30
10384;DHT22;5238;43.508;4.980;2023-04-24T06:34:44;17.00;91.30
10384;DHT22;5238;43.508;4.980;2023-04-24T06:37:35;17.10;91.30
10384;DHT22;5238;43.508;4.980;2023-04-24T06:40:08;17.30;91.30
10384;DHT22;5238;43.508;4.980;2023-04-24T06:42:51;17.40;91.30
10384;DHT22;5238;43.508;4.980;2023-04-24T06:45:20;17.60;91.30
10384;DHT22;5238;43.508;4.980;2023-04-24T06:47:49;17.80;91.30
10384;DHT22;5238;43.508;4.980;2023-04-24T06:50:17;18.00;91.30
10384;DHT22;5238;43.508;4.980;2023-04-24T06:52:45;18.20;91.30
10384;DHT22;5238;43.508;4.980;2023-04-24T06:55:31;18.30;91.30
10384;DHT22;5238;43.508;4.980;2023-04-24T06:57:59;18.50;91.30
10384;DHT22;5238;43.508;4.980;2023-04-24T07:00:32;18.60;91.30
10384;DHT22;5238;43.508;4.980;2023-04-24T07:03:00;18.80;91.30
10384;DHT22;5238;43.508;4.980;2023-04-24T07:05:37;19.00;91.30
10384;DHT22;5238;43.508;4.980;2023-04-24T07:08:09;19.10;91.30
10384;DHT22;5238;43.508;4.980;2023-04-24T07:10:43;19.20;91.30
10384;DHT22;5238;43.508;4.980;2023-04-24T07:13:18;19.40;91.30
10384;DHT22;5238;43.508;4.980;2023-04-24T07:15:47;19.50;91.30
10384;DHT22;5238;43.508;4.980;2023-04-24T07:18:15;19.70;91.30
10384;DHT22;5238;43.508;4.980;2023-04-24T07:20:46;19.90;91.30
10384;DHT22;5238;43.508;4.980;2023-04-24T07:23:17;20.10;91.30
10384;DHT22;5238;43.508;4.980;2023-04-24T07:25:53;20.20;91.30
10384;DHT22;5238;43.508;4.980;2023-04-24T07:28:22;20.30;91.30
10384;DHT22;5238;43.508;4.980;2023-04-24T07:31:00;20.50;91.30
10384;DHT22;5238;43.508;4.980;2023-04-24T07:33:33;20.70;91.30
10384;DHT22;5238;43.508;4.980;2023-04-24T07:36:13;20.80;91.30
10384;DHT22;5238;43.508;4.980;2023-04-24T07:38:55;21.00;91.30
10384;DHT22;5238;43.508;4.980;2023-04-24T07:41:28;21.20;91.30
10384;DHT22;5238;43.508;4.980;2023-04-24T07:43:57;21.40;91.30
10384;DHT22;5238;43.508;4.980;2023-04-24T07:46:26;21.50;91.30
10384;DHT22;5238;43.508;4.980;2023-04-24T07:49:02;21.80;91.30
10384;DHT22;5238;43.508;4.980;2023-04-24T07:51:53;22.00;91.30
10384;DHT22;5238;43.508;4.980;2023-04-24T07:54:26;22.30;91.30
10384;DHT22;5238;43.508;4.980;2023-04-24T07:56:58;22.60;91.30
10384;DHT22;5238;43.508;4.980;2023-04-24T07:59:40;22.70;91.30
10384;DHT22;5238;43.508;4.980;2023-04-24T08:02:07;23.00;91.30
10384;DHT22;5238;43.508;4.980;2023-04-24T08:04:38;23.20;91.30
10384;DHT22;5238;43.508;4.980;2023-04-24T08:07:15;23.40;91.30
10384;DHT22;5238;43.508;4.980;2023-04-24T08:09:54;23.70;91.30
10384;DHT22;5238;43.508;4.980;2023-04-24T08:12:41;24.00;91.30
10384;DHT22;5238;43.508;4.980;2023-04-24T08:15:10;24.30;91.30
10384;DHT22;5238;43.508;4.980;2023-04-24T08:17:53;24.60;91.30
10384;DHT22;5238;43.508;4.980;2023-04-24T08:20:39;24.90;91.30
10384;DHT22;5238;43.508;4.980;2023-04-24T08:23:08;25.10;91.30
10384;DHT22;5238;43.508;4.980;2023-04-24T08:25:39;25.30;91.30
10384;DHT22;5238;43.508;4.980;2023-04-24T08:28:13;25.30;91.30
10384;DHT22;5238;43.508;4.980;2023-04-24T08:30:54;25.60;91.30
10384;DHT22;5238;43.508;4.980;2023-04-24T08:33:30;25.70;91.30
10384;DHT22;5238;43.508;4.980;2023-04-24T08:36:13;25.80;91.30
10384;DHT22;5238;43.508;4.980;2023-04-24T08:38:42;26.00;91.30
10384;DHT22;5238;43.508;4.980;2023-04-24T08:41:09;26.00;91.30
10384;DHT22;5238;43.508;4.980;2023-04-24T08:43:39;26.20;91.30
10384;DHT22;5238;43.508;4.980;2023-04-24T08:46:07;26.20;91.30
10384;DHT22;5238;43.508;4.980;2023-04-24T08:48:42;26.30;91.30
10384;DHT22;5238;43.508;4.980;2023-04-24T08:51:09;26.40;91.30
10384;DHT22;5238;43.508;4.980;2023-04-24T08:53:36;26.50;91.30
10384;DHT22;5238;43.508;4.980;2023-04-24T08:56:04;26.60;91.30
10384;DHT22;5238;43.508;4.980;2023-04-24T08:58:42;26.80;91.30
10384;DHT22;5238;43.508;4.980;2023-04-24T09:04:11;27.10;91.30
10384;DHT22;5238;43.508;4.980;2023-04-24T09:06:45;27.30;91.30
10384;DHT22;5238;43.508;4.980;2023-04-24T09:09:30;27.40;91.30
10384;DHT22;5238;43.508;4.980;2023-04-24T09:12:08;27.50;91.30
10384;DHT22;5238;43.508;4.980;2023-04-24T09:14:42;27.60;91.30
10384;DHT22;5238;43.508;4.980;2023-04-24T09:17:10;27.70;91.30
10384;DHT22;5238;43.508;4.980;2023-04-24T09:19:37;27.80;91.30
10384;DHT22;5238;43.508;4.980;2023-04-24T09:22:14;27.90;91.30
10384;DHT22;5238;43.508;4.980;2023-04-24T09:24:41;28.00;91.30
10384;DHT22;5238;43.508;4.980;2023-04-24T09:27:11;28.20;91.30
10384;DHT22;5238;43.508;4.980;2023-04-24T09:29:39;28.30;91.30
10384;DHT22;5238;43.508;4.980;2023-04-24T09:32:20;28.60;91.30
10384;DHT22;5238;43.508;4.980;2023-04-24T09:34:48;28.80;91.30
10384;DHT22;5238;43.508;4.980;2023-04-24T09:37:28;29.00;91.30
10384;DHT22;5238;43.508;4.980;2023-04-24T09:40:08;29.20;91.30
10384;DHT22;5238;43.508;4.980;2023-04-24T09:42:37;29.50;91.30
10384;DHT22;5238;43.508;4.980;2023-04-24T09:45:19;29.50;91.30
10384;DHT22;5238;43.508;4.980;2023-04-24T09:47:51;29.50;91.30
10384;DHT22;5238;43.508;4.980;2023-04-24T09:50:30;29.30;89.70
10384;DHT22;5238;43.508;4.980;2023-04-24T09:53:01;29.40;90.20
10384;DHT22;5238;43.508;4.980;2023-04-24T09:55:31;29.40;88.40
10384;DHT22;5238;43.508;4.980;2023-04-24T09:58:11;29.40;88.00
10384;DHT22;5238;43.508;4.980;2023-04-24T10:00:42;29.40;88.70
10384;DHT22;5238;43.508;4.980;2023-04-24T10:03:15;29.30;89.30
10384;DHT22;5238;43.508;4.980;2023-04-24T10:05:51;29.30;89.40
10384;DHT22;5238;43.508;4.980;2023-04-24T10:08:33;29.30;89.10
10384;DHT22;5238;43.508;4.980;2023-04-24T10:11:03;29.30;89.70
10384;DHT22;5238;43.508;4.980;2023-04-24T10:13:37;29.30;89.60
10384;DHT22;5238;43.508;4.980;2023-04-24T10:16:10;29.20;89.60
10384;DHT22;5238;43.508;4.980;2023-04-24T10:18:43;29.30;89.90
10384;DHT22;5238;43.508;4.980;2023-04-24T10:21:18;29.30;89.10
10384;DHT22;5238;43.508;4.980;2023-04-24T10:23:48;29.40;89.00
10384;DHT22;5238;43.508;4.980;2023-04-24T10:26:22;29.30;88.40
10384;DHT22;5238;43.508;4.980;2023-04-24T10:28:52;29.30;88.80
10384;DHT22;5238;43.508;4.980;2023-04-24T10:31:31;29.40;88.00
10384;DHT22;5238;43.508;4.980;2023-04-24T10:34:09;29.40;87.40
10384;DHT22;5238;43.508;4.980;2023-04-24T10:36:51;29.40;86.40
10384;DHT22;5238;43.508;4.980;2023-04-24T10:39:27;29.30;84.90
10384;DHT22;5238;43.508;4.980;2023-04-24T10:42:02;29.30;84.90
10384;DHT22;5238;43.508;4.980;2023-04-24T10:44:41;29.30;84.80
10384;DHT22;5238;43.508;4.980;2023-04-24T10:47:14;29.20;84.70
10384;DHT22;5238;43.508;4.980;2023-04-24T10:49:45;29.30;84.40
10384;DHT22;5238;43.508;4.980;2023-04-24T10:52:14;29.20;85.00
10384;DHT22;5238;43.508;4.980;2023-04-24T10:54:52;29.10;84.90
10384;DHT22;5238;43.508;4.980;2023-04-24T10:57:27;29.00;84.70
10384;DHT22;5238;43.508;4.980;2023-04-24T11:00:18;28.70;85.10
10384;DHT22;5238;43.508;4.980;2023-04-24T11:02:55;28.60;84.80
10384;DHT22;5238;43.508;4.980;2023-04-24T11:05:49;28.70;84.20
10384;DHT22;5238;43.508;4.980;2023-04-24T11:08:25;28.80;83.70
10384;DHT22;5238;43.508;4.980;2023-04-24T11:10:58;28.60;84.20
10384;DHT22;5238;43.508;4.980;2023-04-24T11:14:01;28.40;83.00
10384;DHT22;5238;43.508;4.980;2023-04-24T11:16:43;28.20;82.90
10384;DHT22;5238;43.508;4.980;2023-04-24T11:19:23;28.10;82.70
10384;DHT22;5238;43.508;4.980;2023-04-24T11:22:03;28.00;82.70
10384;DHT22;5238;43.508;4.980;2023-04-24T11:24:32;27.90;82.70
10384;DHT22;5238;43.508;4.980;2023-04-24T11:27:05;27.80;83.10
10384;DHT22;5238;43.508;4.980;2023-04-24T11:29:44;27.60;83.70
10384;DHT22;5238;43.508;4.980;2023-04-24T11:32:23;27.30;83.90
10384;DHT22;5238;43.508;4.980;2023-04-24T11:34:54;27.20;83.50
10384;DHT22;5238;43.508;4.980;2023-04-24T11:37:23;27.10;84.20
10384;DHT22;5238;43.508;4.980;2023-04-24T11:40:02;27.10;84.30
10384;DHT22;5238;43.508;4.980;2023-04-24T11:42:36;27.20;85.50
10384;DHT22;5238;43.508;4.980;2023-04-24T11:45:08;27.00;84.30
10384;DHT22;5238;43.508;4.980;2023-04-24T11:47:41;26.80;84.60
10384;DHT22;5238;43.508;4.980;2023-04-24T11:50:14;26.70;84.80
10384;DHT22;5238;43.508;4.980;2023-04-24T11:52:53;26.70;84.10
10384;DHT22;5238;43.508;4.980;2023-04-24T11:55:32;26.80;84.10
10384;DHT22;5238;43.508;4.980;2023-04-24T11:57:59;26.80;84.40
10384;DHT22;5238;43.508;4.980;2023-04-24T12:00:28;26.60;83.80
10384;DHT22;5238;43.508;4.980;2023-04-24T12:03:04;26.50;83.50
10384;DHT22;5238;43.508;4.980;2023-04-24T12:05:34;26.40;83.70
10384;DHT22;5238;43.508;4.980;2023-04-24T12:08:01;26.30;83.80
10384;DHT22;5238;43.508;4.980;2023-04-24T12:10:29;26.20;84.60
10384;DHT22;5238;43.508;4.980;2023-04-24T12:12:57;26.10;84.60
10384;DHT22;5238;43.508;4.980;2023-04-24T12:15:26;26.00;84.30
10384;DHT22;5238;43.508;4.980;2023-04-24T12:17:54;25.90;84.50
10384;DHT22;5238;43.508;4.980;2023-04-24T12:20:24;25.70;84.80
10384;DHT22;5238;43.508;4.980;2023-04-24T12:22:54;25.70;85.20
10384;DHT22;5238;43.508;4.980;2023-04-24T12:25:23;25.70;86.00
10384;DHT22;5238;43.508;4.980;2023-04-24T12:27:53;25.70;86.20
10384;DHT22;5238;43.508;4.980;2023-04-24T12:30:26;25.70;86.20
10384;DHT22;5238;43.508;4.980;2023-04-24T12:32:54;25.60;86.00
10384;DHT22;5238;43.508;4.980;2023-04-24T12:35:23;25.60;86.00
10384;DHT22;5238;43.508;4.980;2023-04-24T12:37:51;25.60;86.70
10384;DHT22;5238;43.508;4.980;2023-04-24T12:40:20;25.50;86.40
10384;DHT22;5238;43.508;4.980;2023-04-24T12:42:49;25.40;86.90
10384;DHT22;5238;43.508;4.980;2023-04-24T12:45:18;25.30;87.00
10384;DHT22;5238;43.508;4.980;2023-04-24T12:47:46;25.30;87.30
10384;DHT22;5238;43.508;4.980;2023-04-24T12:50:15;25.20;87.80
10384;DHT22;5238;43.508;4.980;2023-04-24T12:52:45;25.20;87.50
10384;DHT22;5238;43.508;4.980;2023-04-24T12:55:14;25.10;87.20
10384;DHT22;5238;43.508;4.980;2023-04-24T12:57:45;25.00;87.00
10384;DHT22;5238;43.508;4.980;2023-04-24T13:00:28;25.00;86.90
10384;DHT22;5238;43.508;4.980;2023-04-24T13:02:55;24.90;85.60
10384;DHT22;5238;43.508;4.980;2023-04-24T13:05:23;24.80;85.90
10384;DHT22;5238;43.508;4.980;2023-04-24T13:07:50;24.80;86.10
10384;DHT22;5238;43.508;4.980;2023-04-24T13:10:17;24.80;86.40
10384;DHT22;5238;43.508;4.980;2023-04-24T13:12:46;24.80;86.40
10384;DHT22;5238;43.508;4.980;2023-04-24T13:15:13;24.70;86.30
10384;DHT22;5238;43.508;4.980;2023-04-24T13:17:50;24.60;85.90
10384;DHT22;5238;43.508;4.980;2023-04-24T13:20:18;24.50;85.50
10384;DHT22;5238;43.508;4.980;2023-04-24T13:22:49;24.40;85.20
10384;DHT22;5238;43.508;4.980;2023-04-24T13:25:18;24.40;85.50
10384;DHT22;5238;43.508;4.980;2023-04-24T13:27:51;24.40;85.80
10384;DHT22;5238;43.508;4.980;2023-04-24T13:30:21;24.50;85.60
10384;DHT22;5238;43.508;4.980;2023-04-24T13:32:48;24.50;84.80
10384;DHT22;5238;43.508;4.980;2023-04-24T13:35:15;24.50;85.00
10384;DHT22;5238;43.508;4.980;2023-04-24T13:37:42;24.50;84.60
10384;DHT22;5238;43.508;4.980;2023-04-24T13:40:10;24.50;84.80
10384;DHT22;5238;43.508;4.980;2023-04-24T13:42:37;24.50;85.30
10384;DHT22;5238;43.508;4.980;2023-04-24T13:45:07;24.60;84.40
10384;DHT22;5238;43.508;4.980;2023-04-24T13:47:36;24.60;84.00
10384;DHT22;5238;43.508;4.980;2023-04-24T13:50:07;24.60;84.30
10384;DHT22;5238;43.508;4.980;2023-04-24T13:52:34;24.60;84.60
10384;DHT22;5238;43.508;4.980;2023-04-24T13:55:01;24.60;84.70
10384;DHT22;5238;43.508;4.980;2023-04-24T13:57:28;24.60;83.80
10384;DHT22;5238;43.508;4.980;2023-04-24T13:59:57;24.70;84.20
10384;DHT22;5238;43.508;4.980;2023-04-24T14:02:28;24.70;83.80
10384;DHT22;5238;43.508;4.980;2023-04-24T14:04:55;24.70;83.60
10384;DHT22;5238;43.508;4.980;2023-04-24T14:07:22;24.80;84.90
10384;DHT22;5238;43.508;4.980;2023-04-24T14:09:49;24.80;85.00
10384;DHT22;5238;43.508;4.980;2023-04-24T14:12:17;24.90;85.60
10384;DHT22;5238;43.508;4.980;2023-04-24T14:14:46;25.00;85.60
10384;DHT22;5238;43.508;4.980;2023-04-24T14:17:19;25.10;85.10
10384;DHT22;5238;43.508;4.980;2023-04-24T14:20:06;25.10;85.20
10384;DHT22;5238;43.508;4.980;2023-04-24T14:22:34;25.10;85.20
10384;DHT22;5238;43.508;4.980;2023-04-24T14:25:09;25.10;85.50
10384;DHT22;5238;43.508;4.980;2023-04-24T14:27:46;25.10;85.90
10384;DHT22;5238;43.508;4.980;2023-04-24T14:30:13;25.00;85.00
10384;DHT22;5238;43.508;4.980;2023-04-24T14:32:48;25.00;86.10
10384;DHT22;5238;43.508;4.980;2023-04-24T14:35:18;24.90;87.00
10384;DHT22;5238;43.508;4.980;2023-04-24T14:37:52;24.90;86.70
10384;DHT22;5238;43.508;4.980;2023-04-24T14:40:21;24.80;87.30
10384;DHT22;5238;43.508;4.980;2023-04-24T14:42:50;24.80;87.40
10384;DHT22;5238;43.508;4.980;2023-04-24T14:45:19;24.80;87.30
10384;DHT22;5238;43.508;4.980;2023-04-24T14:47:46;24.70;86.90
10384;DHT22;5238;43.508;4.980;2023-04-24T14:50:13;24.60;86.40
10384;DHT22;5238;43.508;4.980;2023-04-24T14:52:42;24.60;87.10
10384;DHT22;5238;43.508;4.980;2023-04-24T14:55:10;24.60;86.60
10384;DHT22;5238;43.508;4.980;2023-04-24T14:57:37;24.50;87.50
10384;DHT22;5238;43.508;4.980;2023-04-24T15:00:07;24.50;87.40
10384;DHT22;5238;43.508;4.980;2023-04-24T15:02:43;24.60;87.00
10384;DHT22;5238;43.508;4.980;2023-04-24T15:05:12;24.50;87.10
10384;DHT22;5238;43.508;4.980;2023-04-24T15:07:41;24.60;87.40
10384;DHT22;5238;43.508;4.980;2023-04-24T15:10:16;24.60;87.00
10384;DHT22;5238;43.508;4.980;2023-04-24T15:12:44;24.60;87.20
10384;DHT22;5238;43.508;4.980;2023-04-24T15:15:25;24.50;87.10
10384;DHT22;5238;43.508;4.980;2023-04-24T15:17:55;24.50;87.60
10384;DHT22;5238;43.508;4.980;2023-04-24T15:20:25;24.60;87.30
10384;DHT22;5238;43.508;4.980;2023-04-24T15:22:54;24.60;86.20
10384;DHT22;5238;43.508;4.980;2023-04-24T15:25:26;24.70;86.60
10384;DHT22;5238;43.508;4.980;2023-04-24T15:27:55;24.70;87.00
10384;DHT22;5238;43.508;4.980;2023-04-24T15:30:23;24.70;85.60
10384;DHT22;5238;43.508;4.980;2023-04-24T15:32:59;24.60;85.20
10384;DHT22;5238;43.508;4.980;2023-04-24T15:35:30;24.60;85.40
10384;DHT22;5238;43.508;4.980;2023-04-24T15:38:03;24.60;86.00
10384;DHT22;5238;43.508;4.980;2023-04-24T15:40:43;24.60;86.30
10384;DHT22;5238;43.508;4.980;2023-04-24T15:43:11;24.50;86.00
10384;DHT22;5238;43.508;4.980;2023-04-24T15:45:38;24.50;86.50
10384;DHT22;5238;43.508;4.980;2023-04-24T15:48:05;24.40;87.00
10384;DHT22;5238;43.508;4.980;2023-04-24T15:50:32;24.40;87.70
10384;DHT22;5238;43.508;4.980;2023-04-24T15:53:01;24.40;88.00
10384;DHT22;5238;43.508;4.980;2023-04-24T15:55:28;24.30;86.90
10384;DHT22;5238;43.508;4.980;2023-04-24T15:57:55;24.30;86.80
10384;DHT22;5238;43.508;4.980;2023-04-24T16:00:23;24.30;86.00
10384;DHT22;5238;43.508;4.980;2023-04-24T16:02:51;24.30;85.30
10384;DHT22;5238;43.508;4.980;2023-04-24T16:05:18;24.20;85.10
10384;DHT22;5238;43.508;4.980;2023-04-24T16:07:49;24.20;85.50
10384;DHT22;5238;43.508;4.980;2023-04-24T16:10:26;24.10;85.50
10384;DHT22;5238;43.508;4.980;2023-04-24T16:12:54;24.10;85.80
10384;DHT22;5238;43.508;4.980;2023-04-24T16:15:21;24.00;85.90
10384;DHT22;5238;43.508;4.980;2023-04-24T16:17:49;24.00;86.30
10384;DHT22;5238;43.508;4.980;2023-04-24T16:20:16;24.00;87.00
10384;DHT22;5238;43.508;4.980;2023-04-24T16:22:43;24.00;86.80
10384;DHT22;5238;43.508;4.980;2023-04-24T16:25:10;23.90;87.00
10384;DHT22;5238;43.508;4.980;2023-04-24T16:27:47;23.90;87.40
10384;DHT22;5238;43.508;4.980;2023-04-24T16:30:29;23.80;86.10